sensor_id;sensor_type;location;lat;lon;timestamp;P1;durP1;ratioP1;P2;durP2;ratioP2
50219;SDS011;36110;51.536;7.562;2023-03-22T00:01:59;3.35;;;2.40;;
50219;SDS011;36110;51.536;7.562;2023-03-22T00:04:30;4.05;;;2.80;;
50219;SDS011;36110;51.536;7.562;2023-03-22T00:10:06;2.67;;;2.00;;
50219;SDS011;36110;51.536;7.562;2023-03-22T00:19:34;8.50;;;4.87;;
50219;SDS011;36110;51.536;7.562;2023-03-22T00:22:21;2.72;;;2.25;;
50219;SDS011;36110;51.536;7.562;2023-03-22T00:24:52;4.40;;;3.35;;
50219;SDS011;36110;51.536;7.562;2023-03-22T00:27:40;8.68;;;4.22;;
50219;SDS011;36110;51.536;7.562;2023-03-22T00:31:07;8.80;;;4.13;;
50219;SDS011;36110;51.536;7.562;2023-03-22T00:33:32;2.58;;;1.77;;
50219;SDS011;36110;51.536;7.562;2023-03-22T00:36:12;2.53;;;1.70;;
50219;SDS011;36110;51.536;7.562;2023-03-22T00:38:46;2.00;;;1.80;;
50219;SDS011;36110;51.536;7.562;2023-03-22T00:41:13;6.28;;;3.30;;
50219;SDS011;36110;51.536;7.562;2023-03-22T00:43:44;4.20;;;3.25;;
50219;SDS011;36110;51.536;7.562;2023-03-22T00:46:10;5.70;;;3.60;;
50219;SDS011;36110;51.536;7.562;2023-03-22T00:49:07;3.30;;;2.17;;
50219;SDS011;36110;51.536;7.562;2023-03-22T00:51:45;4.45;;;2.63;;
50219;SDS011;36110;51.536;7.562;2023-03-22T00:54:11;3.05;;;2.38;;
50219;SDS011;36110;51.536;7.562;2023-03-22T00:56:47;2.83;;;2.47;;
50219;SDS011;36110;51.536;7.562;2023-03-22T00:59:16;2.90;;;1.80;;
50219;SDS011;36110;51.536;7.562;2023-03-22T01:01:45;1.63;;;1.50;;
50219;SDS011;36110;51.536;7.562;2023-03-22T01:04:14;9.23;;;4.65;;
50219;SDS011;36110;51.536;7.562;2023-03-22T01:06:42;4.68;;;2.92;;
50219;SDS011;36110;51.536;7.562;2023-03-22T01:09:11;8.93;;;4.30;;
50219;SDS011;36110;51.536;7.562;2023-03-22T01:11:58;7.05;;;2.97;;
50219;SDS011;36110;51.536;7.562;2023-03-22T01:14:32;4.50;;;2.70;;
50219;SDS011;36110;51.536;7.562;2023-03-22T01:16:58;8.00;;;3.22;;
50219;SDS011;36110;51.536;7.562;2023-03-22T01:19:29;8.07;;;4.78;;
50219;SDS011;36110;51.536;7.562;2023-03-22T01:21:55;6.70;;;4.88;;
50219;SDS011;36110;51.536;7.562;2023-03-22T01:24:33;11.23;;;4.78;;
50219;SDS011;36110;51.536;7.562;2023-03-22T01:26:59;1.80;;;1.60;;
50219;SDS011;36110;51.536;7.562;2023-03-22T01:29:33;6.35;;;4.45;;
50219;SDS011;36110;51.536;7.562;2023-03-22T01:32:16;7.85;;;4.47;;
50219;SDS011;36110;51.536;7.562;2023-03-22T01:34:41;7.07;;;4.70;;
50219;SDS011;36110;51.536;7.562;2023-03-22T01:37:06;6.20;;;3.97;;
50219;SDS011;36110;51.536;7.562;2023-03-22T01:39:40;4.20;;;2.60;;
50219;SDS011;36110;51.536;7.562;2023-03-22T01:42:08;2.00;;;1.80;;
50219;SDS011;36110;51.536;7.562;2023-03-22T01:44:37;3.10;;;2.60;;
50219;SDS011;36110;51.536;7.562;2023-03-22T01:47:03;9.73;;;6.22;;
50219;SDS011;36110;51.536;7.562;2023-03-22T01:49:29;9.40;;;4.43;;
50219;SDS011;36110;51.536;7.562;2023-03-22T01:51:57;4.25;;;2.40;;
50219;SDS011;36110;51.536;7.562;2023-03-22T01:57:15;6.60;;;4.13;;
50219;SDS011;36110;51.536;7.562;2023-03-22T01:59:58;3.90;;;3.17;;
50219;SDS011;36110;51.536;7.562;2023-03-22T02:02:24;6.15;;;4.35;;
50219;SDS011;36110;51.536;7.562;2023-03-22T02:05:00;9.02;;;4.38;;
50219;SDS011;36110;51.536;7.562;2023-03-22T02:07:35;10.05;;;7.07;;
50219;SDS011;36110;51.536;7.562;2023-03-22T02:10:25;2.45;;;2.20;;
50219;SDS011;36110;51.536;7.562;2023-03-22T02:15:54;6.72;;;4.85;;
50219;SDS011;36110;51.536;7.562;2023-03-22T02:41:37;5.43;;;4.72;;
50219;SDS011;36110;51.536;7.562;2023-03-22T02:47:20;1.98;;;1.70;;
50219;SDS011;36110;51.536;7.562;2023-03-22T02:49:54;7.10;;;4.15;;
50219;SDS011;36110;51.536;7.562;2023-03-22T02:52:28;3.83;;;1.83;;
50219;SDS011;36110;51.536;7.562;2023-03-22T02:58:55;6.25;;;4.40;;
50219;SDS011;36110;51.536;7.562;2023-03-22T03:02:02;2.15;;;2.03;;
50219;SDS011;36110;51.536;7.562;2023-03-22T03:04:49;5.45;;;4.32;;
50219;SDS011;36110;51.536;7.562;2023-03-22T03:08:00;10.40;;;5.82;;
50219;SDS011;36110;51.536;7.562;2023-03-22T03:10:24;2.75;;;2.17;;
50219;SDS011;36110;51.536;7.562;2023-03-22T03:12:56;3.85;;;2.97;;
50219;SDS011;36110;51.536;7.562;2023-03-22T03:15:36;9.27;;;5.43;;
50219;SDS011;36110;51.536;7.562;2023-03-22T03:18:25;2.33;;;1.90;;
50219;SDS011;36110;51.536;7.562;2023-03-22T03:30:11;9.93;;;7.70;;
50219;SDS011;36110;51.536;7.562;2023-03-22T03:32:58;6.90;;;4.15;;
50219;SDS011;36110;51.536;7.562;2023-03-22T03:35:53;2.28;;;1.92;;
50219;SDS011;36110;51.536;7.562;2023-03-22T03:38:27;2.63;;;2.20;;
50219;SDS011;36110;51.536;7.562;2023-03-22T03:41:32;7.10;;;5.05;;
50219;SDS011;36110;51.536;7.562;2023-03-22T03:44:12;2.20;;;2.10;;
50219;SDS011;36110;51.536;7.562;2023-03-22T03:46:46;3.20;;;2.20;;
50219;SDS011;36110;51.536;7.562;2023-03-22T03:49:23;7.53;;;4.57;;
50219;SDS011;36110;51.536;7.562;2023-03-22T03:51:51;6.93;;;3.67;;
50219;SDS011;36110;51.536;7.562;2023-03-22T03:54:18;11.80;;;7.38;;
50219;SDS011;36110;51.536;7.562;2023-03-22T03:56:52;2.08;;;1.88;;
50219;SDS011;36110;51.536;7.562;2023-03-22T03:59:23;8.75;;;5.38;;
50219;SDS011;36110;51.536;7.562;2023-03-22T04:01:54;5.53;;;3.88;;
50219;SDS011;36110;51.536;7.562;2023-03-22T04:04:28;5.28;;;3.53;;
50219;SDS011;36110;51.536;7.562;2023-03-22T04:10:02;9.25;;;5.65;;
50219;SDS011;36110;51.536;7.562;2023-03-22T04:12:28;9.82;;;6.15;;
50219;SDS011;36110;51.536;7.562;2023-03-22T04:14:53;9.43;;;5.82;;
50219;SDS011;36110;51.536;7.562;2023-03-22T04:17:19;2.92;;;2.63;;
50219;SDS011;36110;51.536;7.562;2023-03-22T04:19:45;3.95;;;3.13;;
50219;SDS011;36110;51.536;7.562;2023-03-22T04:22:10;7.57;;;4.50;;
50219;SDS011;36110;51.536;7.562;2023-03-22T04:24:38;7.57;;;5.40;;
50219;SDS011;36110;51.536;7.562;2023-03-22T04:27:05;2.78;;;2.22;;
50219;SDS011;36110;51.536;7.562;2023-03-22T04:29:32;7.72;;;5.63;;
50219;SDS011;36110;51.536;7.562;2023-03-22T04:32:00;6.60;;;4.55;;
50219;SDS011;36110;51.536;7.562;2023-03-22T04:34:26;6.53;;;4.82;;
50219;SDS011;36110;51.536;7.562;2023-03-22T04:36:51;12.50;;;6.72;;
50219;SDS011;36110;51.536;7.562;2023-03-22T04:39:16;3.05;;;2.70;;
50219;SDS011;36110;51.536;7.562;2023-03-22T04:41:42;3.75;;;2.00;;
50219;SDS011;36110;51.536;7.562;2023-03-22T04:44:07;11.50;;;6.68;;
50219;SDS011;36110;51.536;7.562;2023-03-22T04:46:33;5.88;;;3.38;;
50219;SDS011;36110;51.536;7.562;2023-03-22T04:49:00;6.88;;;5.07;;
50219;SDS011;36110;51.536;7.562;2023-03-22T04:51:25;4.47;;;3.63;;
50219;SDS011;36110;51.536;7.562;2023-03-22T04:53:51;4.93;;;3.70;;
50219;SDS011;36110;51.536;7.562;2023-03-22T04:56:17;2.20;;;1.90;;
50219;SDS011;36110;51.536;7.562;2023-03-22T04:58:43;5.22;;;3.58;;
50219;SDS011;36110;51.536;7.562;2023-03-22T05:01:09;2.72;;;1.83;;
50219;SDS011;36110;51.536;7.562;2023-03-22T05:03:36;12.85;;;6.30;;
50219;SDS011;36110;51.536;7.562;2023-03-22T05:08:33;2.33;;;2.00;;
50219;SDS011;36110;51.536;7.562;2023-03-22T05:11:03;5.57;;;3.55;;
50219;SDS011;36110;51.536;7.562;2023-03-22T05:13:32;2.85;;;2.10;;
50219;SDS011;36110;51.536;7.562;2023-03-22T05:15:57;6.50;;;4.78;;
50219;SDS011;36110;51.536;7.562;2023-03-22T05:18:23;7.60;;;4.38;;
50219;SDS011;36110;51.536;7.562;2023-03-22T05:23:19;15.18;;;6.97;;
50219;SDS011;36110;51.536;7.562;2023-03-22T05:25:45;10.85;;;6.28;;
50219;SDS011;36110;51.536;7.562;2023-03-22T05:28:12;6.00;;;3.17;;
50219;SDS011;36110;51.536;7.562;2023-03-22T05:33:58;6.53;;;4.57;;
50219;SDS011;36110;51.536;7.562;2023-03-22T05:36:25;8.32;;;4.43;;
50219;SDS011;36110;51.536;7.562;2023-03-22T05:38:55;10.15;;;4.45;;
50219;SDS011;36110;51.536;7.562;2023-03-22T05:41:33;8.38;;;3.50;;
50219;SDS011;36110;51.536;7.562;2023-03-22T05:43:59;5.00;;;3.47;;
50219;SDS011;36110;51.536;7.562;2023-03-22T05:46:37;10.80;;;6.18;;
50219;SDS011;36110;51.536;7.562;2023-03-22T05:49:02;7.25;;;4.70;;
50219;SDS011;36110;51.536;7.562;2023-03-22T05:51:27;7.07;;;5.18;;
50219;SDS011;36110;51.536;7.562;2023-03-22T05:53:53;8.38;;;5.32;;
50219;SDS011;36110;51.536;7.562;2023-03-22T05:56:19;7.13;;;4.20;;
50219;SDS011;36110;51.536;7.562;2023-03-22T05:58:48;4.43;;;2.22;;
50219;SDS011;36110;51.536;7.562;2023-03-22T06:01:14;6.85;;;3.75;;
50219;SDS011;36110;51.536;7.562;2023-03-22T06:03:40;3.20;;;2.78;;
50219;SDS011;36110;51.536;7.562;2023-03-22T06:06:06;4.10;;;3.60;;
50219;SDS011;36110;51.536;7.562;2023-03-22T06:08:34;5.70;;;3.95;;
50219;SDS011;36110;51.536;7.562;2023-03-22T06:11:01;8.77;;;5.30;;
50219;SDS011;36110;51.536;7.562;2023-03-22T06:13:26;6.90;;;4.93;;
50219;SDS011;36110;51.536;7.562;2023-03-22T06:15:51;5.60;;;4.05;;
50219;SDS011;36110;51.536;7.562;2023-03-22T06:18:18;12.32;;;6.88;;
50219;SDS011;36110;51.536;7.562;2023-03-22T06:20:43;9.15;;;5.50;;
50219;SDS011;36110;51.536;7.562;2023-03-22T06:23:08;9.55;;;6.20;;
50219;SDS011;36110;51.536;7.562;2023-03-22T06:25:34;6.55;;;4.38;;
50219;SDS011;36110;51.536;7.562;2023-03-22T06:27:59;3.55;;;2.30;;
50219;SDS011;36110;51.536;7.562;2023-03-22T06:30:25;7.60;;;3.80;;
50219;SDS011;36110;51.536;7.562;2023-03-22T06:32:50;7.38;;;4.65;;
50219;SDS011;36110;51.536;7.562;2023-03-22T06:35:15;3.80;;;2.50;;
50219;SDS011;36110;51.536;7.562;2023-03-22T06:37:41;8.93;;;4.15;;
50219;SDS011;36110;51.536;7.562;2023-03-22T06:40:07;5.03;;;3.35;;
50219;SDS011;36110;51.536;7.562;2023-03-22T06:42:34;3.00;;;2.20;;
50219;SDS011;36110;51.536;7.562;2023-03-22T06:44:59;7.55;;;5.10;;
50219;SDS011;36110;51.536;7.562;2023-03-22T06:47:25;10.10;;;6.00;;
50219;SDS011;36110;51.536;7.562;2023-03-22T06:49:51;2.28;;;2.08;;
50219;SDS011;36110;51.536;7.562;2023-03-22T06:52:17;3.47;;;1.90;;
50219;SDS011;36110;51.536;7.562;2023-03-22T06:54:42;4.38;;;2.10;;
50219;SDS011;36110;51.536;7.562;2023-03-22T06:57:07;10.27;;;6.57;;
50219;SDS011;36110;51.536;7.562;2023-03-22T06:59:33;13.25;;;6.85;;
50219;SDS011;36110;51.536;7.562;2023-03-22T07:01:58;9.63;;;5.20;;
50219;SDS011;36110;51.536;7.562;2023-03-22T07:04:23;9.77;;;6.22;;
50219;SDS011;36110;51.536;7.562;2023-03-22T07:06:49;8.85;;;5.78;;
50219;SDS011;36110;51.536;7.562;2023-03-22T07:09:15;8.73;;;4.93;;
50219;SDS011;36110;51.536;7.562;2023-03-22T07:11:40;9.68;;;5.10;;
50219;SDS011;36110;51.536;7.562;2023-03-22T07:14:05;7.13;;;4.80;;
50219;SDS011;36110;51.536;7.562;2023-03-22T07:16:31;6.93;;;5.00;;
50219;SDS011;36110;51.536;7.562;2023-03-22T07:18:56;7.25;;;5.10;;
50219;SDS011;36110;51.536;7.562;2023-03-22T07:21:21;8.32;;;4.88;;
50219;SDS011;36110;51.536;7.562;2023-03-22T07:23:47;7.28;;;4.50;;
50219;SDS011;36110;51.536;7.562;2023-03-22T07:26:12;12.38;;;5.53;;
50219;SDS011;36110;51.536;7.562;2023-03-22T07:28:38;9.20;;;4.68;;
50219;SDS011;36110;51.536;7.562;2023-03-22T07:31:06;6.97;;;5.25;;
50219;SDS011;36110;51.536;7.562;2023-03-22T07:33:33;7.90;;;5.03;;
50219;SDS011;36110;51.536;7.562;2023-03-22T07:35:59;10.55;;;4.88;;
50219;SDS011;36110;51.536;7.562;2023-03-22T07:38:24;9.38;;;5.28;;
50219;SDS011;36110;51.536;7.562;2023-03-22T07:40:51;8.75;;;4.40;;
50219;SDS011;36110;51.536;7.562;2023-03-22T07:43:18;10.88;;;4.07;;
50219;SDS011;36110;51.536;7.562;2023-03-22T07:45:44;9.93;;;4.20;;
50219;SDS011;36110;51.536;7.562;2023-03-22T07:48:09;10.70;;;4.60;;
50219;SDS011;36110;51.536;7.562;2023-03-22T07:50:35;7.93;;;4.10;;
50219;SDS011;36110;51.536;7.562;2023-03-22T07:53:01;7.47;;;4.68;;
50219;SDS011;36110;51.536;7.562;2023-03-22T07:55:27;7.43;;;3.97;;
50219;SDS011;36110;51.536;7.562;2023-03-22T07:57:53;7.45;;;4.70;;
50219;SDS011;36110;51.536;7.562;2023-03-22T08:00:18;7.55;;;4.75;;
50219;SDS011;36110;51.536;7.562;2023-03-22T08:02:44;11.48;;;3.80;;
50219;SDS011;36110;51.536;7.562;2023-03-22T08:05:10;11.38;;;4.57;;
50219;SDS011;36110;51.536;7.562;2023-03-22T08:07:35;10.52;;;4.00;;
50219;SDS011;36110;51.536;7.562;2023-03-22T08:10:01;8.35;;;3.08;;
50219;SDS011;36110;51.536;7.562;2023-03-22T08:12:26;7.75;;;3.95;;
50219;SDS011;36110;51.536;7.562;2023-03-22T08:14:52;8.85;;;3.50;;
50219;SDS011;36110;51.536;7.562;2023-03-22T08:17:18;8.85;;;3.67;;
50219;SDS011;36110;51.536;7.562;2023-03-22T08:19:43;19.90;;;4.85;;
50219;SDS011;36110;51.536;7.562;2023-03-22T08:22:09;8.90;;;3.63;;
50219;SDS011;36110;51.536;7.562;2023-03-22T08:24:35;5.13;;;3.13;;
50219;SDS011;36110;51.536;7.562;2023-03-22T08:27:01;10.05;;;3.47;;
50219;SDS011;36110;51.536;7.562;2023-03-22T08:29:26;6.57;;;3.75;;
50219;SDS011;36110;51.536;7.562;2023-03-22T08:31:52;8.95;;;2.97;;
50219;SDS011;36110;51.536;7.562;2023-03-22T08:34:17;7.80;;;3.00;;
50219;SDS011;36110;51.536;7.562;2023-03-22T08:36:43;7.25;;;3.33;;
50219;SDS011;36110;51.536;7.562;2023-03-22T08:39:08;6.72;;;3.92;;
50219;SDS011;36110;51.536;7.562;2023-03-22T08:41:34;8.65;;;3.30;;
50219;SDS011;36110;51.536;7.562;2023-03-22T08:43:59;6.70;;;3.38;;
50219;SDS011;36110;51.536;7.562;2023-03-22T08:46:25;8.45;;;3.05;;
50219;SDS011;36110;51.536;7.562;2023-03-22T08:48:51;7.45;;;3.30;;
50219;SDS011;36110;51.536;7.562;2023-03-22T08:51:17;9.10;;;3.38;;
50219;SDS011;36110;51.536;7.562;2023-03-22T08:53:44;5.82;;;3.55;;
50219;SDS011;36110;51.536;7.562;2023-03-22T08:56:10;7.97;;;3.63;;
50219;SDS011;36110;51.536;7.562;2023-03-22T08:58:35;5.43;;;3.70;;
50219;SDS011;36110;51.536;7.562;2023-03-22T09:01:00;7.03;;;3.80;;
50219;SDS011;36110;51.536;7.562;2023-03-22T09:03:26;6.70;;;3.70;;
50219;SDS011;36110;51.536;7.562;2023-03-22T09:05:51;6.95;;;3.08;;
50219;SDS011;36110;51.536;7.562;2023-03-22T09:08:17;7.35;;;3.72;;
50219;SDS011;36110;51.536;7.562;2023-03-22T09:10:42;6.15;;;3.28;;
50219;SDS011;36110;51.536;7.562;2023-03-22T09:13:08;7.07;;;3.20;;
50219;SDS011;36110;51.536;7.562;2023-03-22T09:15:33;4.65;;;2.80;;
50219;SDS011;36110;51.536;7.562;2023-03-22T09:17:58;7.13;;;3.85;;
50219;SDS011;36110;51.536;7.562;2023-03-22T09:20:23;6.75;;;3.22;;
50219;SDS011;36110;51.536;7.562;2023-03-22T09:22:50;5.50;;;3.45;;
50219;SDS011;36110;51.536;7.562;2023-03-22T09:25:15;3.92;;;2.35;;
50219;SDS011;36110;51.536;7.562;2023-03-22T09:27:41;6.85;;;3.33;;
50219;SDS011;36110;51.536;7.562;2023-03-22T09:30:06;5.13;;;3.45;;
50219;SDS011;36110;51.536;7.562;2023-03-22T09:32:32;7.63;;;3.65;;
50219;SDS011;36110;51.536;7.562;2023-03-22T09:34:57;4.38;;;2.42;;
50219;SDS011;36110;51.536;7.562;2023-03-22T09:37:23;6.90;;;2.40;;
50219;SDS011;36110;51.536;7.562;2023-03-22T09:39:54;6.43;;;3.03;;
50219;SDS011;36110;51.536;7.562;2023-03-22T09:42:24;5.78;;;3.30;;
50219;SDS011;36110;51.536;7.562;2023-03-22T09:44:56;3.30;;;2.40;;
50219;SDS011;36110;51.536;7.562;2023-03-22T09:47:55;13.60;;;3.47;;
50219;SDS011;36110;51.536;7.562;2023-03-22T09:50:19;4.28;;;3.08;;
50219;SDS011;36110;51.536;7.562;2023-03-22T09:52:46;6.97;;;2.92;;
50219;SDS011;36110;51.536;7.562;2023-03-22T09:55:16;5.10;;;2.85;;
50219;SDS011;36110;51.536;7.562;2023-03-22T09:58:25;5.20;;;3.10;;
50219;SDS011;36110;51.536;7.562;2023-03-22T10:00:51;6.82;;;3.22;;
50219;SDS011;36110;51.536;7.562;2023-03-22T10:08:47;4.32;;;2.92;;
50219;SDS011;36110;51.536;7.562;2023-03-22T10:14:47;6.75;;;3.17;;
50219;SDS011;36110;51.536;7.562;2023-03-22T10:16:55;4.47;;;3.00;;
50219;SDS011;36110;51.536;7.562;2023-03-22T10:22:00;6.65;;;2.50;;
50219;SDS011;36110;51.536;7.562;2023-03-22T10:24:30;6.85;;;3.03;;
50219;SDS011;36110;51.536;7.562;2023-03-22T10:26:57;4.55;;;2.53;;
50219;SDS011;36110;51.536;7.562;2023-03-22T10:32:05;5.57;;;2.63;;
50219;SDS011;36110;51.536;7.562;2023-03-22T10:34:41;5.93;;;2.50;;
50219;SDS011;36110;51.536;7.562;2023-03-22T10:37:07;7.53;;;2.67;;
50219;SDS011;36110;51.536;7.562;2023-03-22T10:39:37;4.65;;;2.38;;
50219;SDS011;36110;51.536;7.562;2023-03-22T10:42:07;4.63;;;2.97;;
50219;SDS011;36110;51.536;7.562;2023-03-22T10:44:44;5.50;;;2.75;;
50219;SDS011;36110;51.536;7.562;2023-03-22T10:47:12;4.25;;;2.20;;
50219;SDS011;36110;51.536;7.562;2023-03-22T10:49:45;5.18;;;2.10;;
50219;SDS011;36110;51.536;7.562;2023-03-22T10:54:48;5.72;;;2.67;;
50219;SDS011;36110;51.536;7.562;2023-03-22T10:57:13;5.75;;;2.75;;
50219;SDS011;36110;51.536;7.562;2023-03-22T10:59:50;3.55;;;2.25;;
50219;SDS011;36110;51.536;7.562;2023-03-22T11:02:22;3.20;;;2.55;;
50219;SDS011;36110;51.536;7.562;2023-03-22T11:04:56;3.92;;;2.63;;
50219;SDS011;36110;51.536;7.562;2023-03-22T11:07:28;5.10;;;1.95;;
50219;SDS011;36110;51.536;7.562;2023-03-22T11:12:38;4.38;;;2.22;;
50219;SDS011;36110;51.536;7.562;2023-03-22T11:15:06;4.45;;;1.65;;
50219;SDS011;36110;51.536;7.562;2023-03-22T11:17:43;5.68;;;2.03;;
50219;SDS011;36110;51.536;7.562;2023-03-22T11:20:12;2.10;;;1.63;;
50219;SDS011;36110;51.536;7.562;2023-03-22T11:22:40;3.92;;;2.67;;
50219;SDS011;36110;51.536;7.562;2023-03-22T11:25:14;3.80;;;1.98;;
50219;SDS011;36110;51.536;7.562;2023-03-22T11:28:16;3.00;;;2.47;;
50219;SDS011;36110;51.536;7.562;2023-03-22T11:30:40;3.33;;;1.70;;
50219;SDS011;36110;51.536;7.562;2023-03-22T11:33:26;2.63;;;1.98;;
50219;SDS011;36110;51.536;7.562;2023-03-22T11:35:52;8.90;;;1.83;;
50219;SDS011;36110;51.536;7.562;2023-03-22T11:38:23;4.47;;;1.30;;
50219;SDS011;36110;51.536;7.562;2023-03-22T11:40:54;7.88;;;2.03;;
50219;SDS011;36110;51.536;7.562;2023-03-22T11:46:00;3.90;;;1.60;;
50219;SDS011;36110;51.536;7.562;2023-03-22T11:48:26;5.68;;;1.73;;
50219;SDS011;36110;51.536;7.562;2023-03-22T11:50:54;3.65;;;1.85;;
50219;SDS011;36110;51.536;7.562;2023-03-22T11:53:30;3.42;;;1.70;;
50219;SDS011;36110;51.536;7.562;2023-03-22T11:55:57;6.70;;;1.60;;
50219;SDS011;36110;51.536;7.562;2023-03-22T11:58:27;4.20;;;1.98;;
50219;SDS011;36110;51.536;7.562;2023-03-22T12:00:59;5.78;;;1.33;;
50219;SDS011;36110;51.536;7.562;2023-03-22T12:03:26;3.63;;;1.58;;
50219;SDS011;36110;51.536;7.562;2023-03-22T12:05:53;4.70;;;1.60;;
50219;SDS011;36110;51.536;7.562;2023-03-22T12:08:24;4.15;;;1.60;;
50219;SDS011;36110;51.536;7.562;2023-03-22T12:13:53;3.42;;;1.75;;
50219;SDS011;36110;51.536;7.562;2023-03-22T12:16:22;4.13;;;1.50;;
50219;SDS011;36110;51.536;7.562;2023-03-22T12:18:59;3.45;;;1.70;;
50219;SDS011;36110;51.536;7.562;2023-03-22T12:21:29;4.00;;;1.65;;
50219;SDS011;36110;51.536;7.562;2023-03-22T12:23:56;3.70;;;2.00;;
50219;SDS011;36110;51.536;7.562;2023-03-22T12:26:25;3.60;;;1.40;;
50219;SDS011;36110;51.536;7.562;2023-03-22T12:31:22;3.40;;;1.58;;
50219;SDS011;36110;51.536;7.562;2023-03-22T12:33:51;2.78;;;1.63;;
50219;SDS011;36110;51.536;7.562;2023-03-22T12:36:19;2.33;;;1.30;;
50219;SDS011;36110;51.536;7.562;2023-03-22T12:38:57;4.70;;;1.77;;
50219;SDS011;36110;51.536;7.562;2023-03-22T12:41:30;4.03;;;1.60;;
50219;SDS011;36110;51.536;7.562;2023-03-22T12:44:02;2.08;;;1.38;;
50219;SDS011;36110;51.536;7.562;2023-03-22T12:46:34;3.80;;;1.40;;
50219;SDS011;36110;51.536;7.562;2023-03-22T12:51:28;3.65;;;1.70;;
50219;SDS011;36110;51.536;7.562;2023-03-22T12:53:55;2.28;;;1.25;;
50219;SDS011;36110;51.536;7.562;2023-03-22T12:56:30;2.47;;;1.70;;
50219;SDS011;36110;51.536;7.562;2023-03-22T12:59:03;3.78;;;1.40;;
50219;SDS011;36110;51.536;7.562;2023-03-22T13:02:17;4.10;;;1.75;;
50219;SDS011;36110;51.536;7.562;2023-03-22T13:06:55;3.53;;;1.27;;
50219;SDS011;36110;51.536;7.562;2023-03-22T13:09:43;2.00;;;1.38;;
50219;SDS011;36110;51.536;7.562;2023-03-22T13:33:13;5.30;;;1.35;;
50219;SDS011;36110;51.536;7.562;2023-03-22T13:36:02;3.22;;;1.40;;
50219;SDS011;36110;51.536;7.562;2023-03-22T13:38:34;4.38;;;1.60;;
50219;SDS011;36110;51.536;7.562;2023-03-22T13:41:03;7.13;;;1.50;;
50219;SDS011;36110;51.536;7.562;2023-03-22T14:07:52;3.22;;;1.50;;
50219;SDS011;36110;51.536;7.562;2023-03-22T14:14:06;2.88;;;1.23;;
50219;SDS011;36110;51.536;7.562;2023-03-22T14:16:47;4.22;;;1.30;;
50219;SDS011;36110;51.536;7.562;2023-03-22T14:26:33;4.35;;;1.30;;
50219;SDS011;36110;51.536;7.562;2023-03-22T14:29:07;2.65;;;1.40;;
50219;SDS011;36110;51.536;7.562;2023-03-22T14:32:26;4.05;;;1.33;;
50219;SDS011;36110;51.536;7.562;2023-03-22T14:34:57;3.55;;;1.30;;
50219;SDS011;36110;51.536;7.562;2023-03-22T14:37:26;4.25;;;1.65;;
50219;SDS011;36110;51.536;7.562;2023-03-22T14:39:51;5.10;;;1.77;;
50219;SDS011;36110;51.536;7.562;2023-03-22T14:44:46;3.28;;;1.60;;
50219;SDS011;36110;51.536;7.562;2023-03-22T14:47:39;4.30;;;1.15;;
50219;SDS011;36110;51.536;7.562;2023-03-22T14:52:37;1.65;;;0.90;;
50219;SDS011;36110;51.536;7.562;2023-03-22T14:55:06;3.28;;;1.30;;
50219;SDS011;36110;51.536;7.562;2023-03-22T14:57:36;2.58;;;0.98;;
50219;SDS011;36110;51.536;7.562;2023-03-22T15:00:04;2.45;;;0.95;;
50219;SDS011;36110;51.536;7.562;2023-03-22T15:02:40;4.65;;;1.83;;
50219;SDS011;36110;51.536;7.562;2023-03-22T15:05:17;5.88;;;1.60;;
50219;SDS011;36110;51.536;7.562;2023-03-22T15:10:17;3.75;;;1.17;;
50219;SDS011;36110;51.536;7.562;2023-03-22T15:12:44;2.83;;;1.50;;
50219;SDS011;36110;51.536;7.562;2023-03-22T15:15:12;4.38;;;1.50;;
50219;SDS011;36110;51.536;7.562;2023-03-22T15:17:38;7.22;;;2.45;;
50219;SDS011;36110;51.536;7.562;2023-03-22T15:20:06;2.85;;;1.50;;
50219;SDS011;36110;51.536;7.562;2023-03-22T15:22:31;4.28;;;1.55;;
50219;SDS011;36110;51.536;7.562;2023-03-22T15:25:02;4.68;;;1.75;;
50219;SDS011;36110;51.536;7.562;2023-03-22T15:27:29;5.47;;;1.52;;
50219;SDS011;36110;51.536;7.562;2023-03-22T15:29:54;4.57;;;1.58;;
50219;SDS011;36110;51.536;7.562;2023-03-22T15:35:22;6.15;;;1.48;;
50219;SDS011;36110;51.536;7.562;2023-03-22T15:38:00;3.35;;;1.50;;
50219;SDS011;36110;51.536;7.562;2023-03-22T15:47:26;4.70;;;1.70;;
50219;SDS011;36110;51.536;7.562;2023-03-22T15:50:09;5.57;;;1.40;;
50219;SDS011;36110;51.536;7.562;2023-03-22T15:52:51;3.85;;;1.70;;
50219;SDS011;36110;51.536;7.562;2023-03-22T15:55:27;2.40;;;1.25;;
50219;SDS011;36110;51.536;7.562;2023-03-22T15:58:39;4.40;;;1.50;;
50219;SDS011;36110;51.536;7.562;2023-03-22T16:01:08;3.05;;;1.30;;
50219;SDS011;36110;51.536;7.562;2023-03-22T16:03:40;4.73;;;1.40;;
50219;SDS011;36110;51.536;7.562;2023-03-22T16:06:10;5.10;;;1.55;;
50219;SDS011;36110;51.536;7.562;2023-03-22T16:08:36;5.85;;;1.52;;
50219;SDS011;36110;51.536;7.562;2023-03-22T16:11:01;4.53;;;1.33;;
50219;SDS011;36110;51.536;7.562;2023-03-22T16:13:26;4.55;;;1.35;;
50219;SDS011;36110;51.536;7.562;2023-03-22T16:15:54;4.90;;;1.40;;
50219;SDS011;36110;51.536;7.562;2023-03-22T16:18:20;5.20;;;1.48;;
50219;SDS011;36110;51.536;7.562;2023-03-22T16:20:46;4.70;;;1.48;;
50219;SDS011;36110;51.536;7.562;2023-03-22T16:23:13;5.10;;;1.83;;
50219;SDS011;36110;51.536;7.562;2023-03-22T16:25:53;3.58;;;1.30;;
50219;SDS011;36110;51.536;7.562;2023-03-22T16:28:46;3.78;;;1.27;;
50219;SDS011;36110;51.536;7.562;2023-03-22T16:31:12;3.53;;;1.60;;
50219;SDS011;36110;51.536;7.562;2023-03-22T16:33:38;4.20;;;1.45;;
50219;SDS011;36110;51.536;7.562;2023-03-22T16:36:04;1.67;;;1.00;;
50219;SDS011;36110;51.536;7.562;2023-03-22T16:38:32;4.13;;;1.20;;
50219;SDS011;36110;51.536;7.562;2023-03-22T16:40:58;8.80;;;2.10;;
50219;SDS011;36110;51.536;7.562;2023-03-22T16:43:25;2.35;;;1.13;;
50219;SDS011;36110;51.536;7.562;2023-03-22T16:45:50;3.33;;;1.20;;
50219;SDS011;36110;51.536;7.562;2023-03-22T16:48:17;2.33;;;1.10;;
50219;SDS011;36110;51.536;7.562;2023-03-22T16:50:43;3.72;;;1.20;;
50219;SDS011;36110;51.536;7.562;2023-03-22T16:53:10;3.67;;;1.50;;
50219;SDS011;36110;51.536;7.562;2023-03-22T16:55:37;4.50;;;1.45;;
50219;SDS011;36110;51.536;7.562;2023-03-22T16:58:03;3.58;;;1.30;;
50219;SDS011;36110;51.536;7.562;2023-03-22T17:00:28;1.92;;;1.08;;
50219;SDS011;36110;51.536;7.562;2023-03-22T17:02:54;2.80;;;1.17;;
50219;SDS011;36110;51.536;7.562;2023-03-22T17:05:22;3.50;;;1.33;;
50219;SDS011;36110;51.536;7.562;2023-03-22T17:07:49;2.47;;;1.60;;
50219;SDS011;36110;51.536;7.562;2023-03-22T17:10:16;2.25;;;1.27;;
50219;SDS011;36110;51.536;7.562;2023-03-22T17:12:42;5.03;;;1.63;;
50219;SDS011;36110;51.536;7.562;2023-03-22T17:15:23;3.92;;;1.50;;
50219;SDS011;36110;51.536;7.562;2023-03-22T17:17:51;5.50;;;1.60;;
50219;SDS011;36110;51.536;7.562;2023-03-22T17:20:16;3.10;;;1.30;;
50219;SDS011;36110;51.536;7.562;2023-03-22T17:22:42;1.17;;;0.95;;
50219;SDS011;36110;51.536;7.562;2023-03-22T17:25:12;5.50;;;1.60;;
50219;SDS011;36110;51.536;7.562;2023-03-22T17:27:42;4.47;;;1.50;;
50219;SDS011;36110;51.536;7.562;2023-03-22T17:30:07;4.03;;;1.13;;
50219;SDS011;36110;51.536;7.562;2023-03-22T17:32:33;4.20;;;1.17;;
50219;SDS011;36110;51.536;7.562;2023-03-22T17:34:59;5.30;;;1.60;;
50219;SDS011;36110;51.536;7.562;2023-03-22T17:37:24;2.38;;;0.80;;
50219;SDS011;36110;51.536;7.562;2023-03-22T17:39:59;5.50;;;1.10;;
50219;SDS011;36110;51.536;7.562;2023-03-22T17:42:25;1.92;;;1.10;;
50219;SDS011;36110;51.536;7.562;2023-03-22T17:44:51;4.97;;;1.40;;
50219;SDS011;36110;51.536;7.562;2023-03-22T17:47:17;2.35;;;1.20;;
50219;SDS011;36110;51.536;7.562;2023-03-22T17:49:42;3.50;;;1.48;;
50219;SDS011;36110;51.536;7.562;2023-03-22T17:52:09;2.33;;;1.02;;
50219;SDS011;36110;51.536;7.562;2023-03-22T17:54:52;5.30;;;1.35;;
50219;SDS011;36110;51.536;7.562;2023-03-22T17:57:36;3.47;;;1.13;;
50219;SDS011;36110;51.536;7.562;2023-03-22T18:00:02;3.17;;;1.40;;